createdAt,value
2024-03-20T00:02:43.783Z,57.43
2024-03-20T00:05:41.068Z,58.07
2024-03-20T00:08:38.196Z,58.51
2024-03-20T00:11:36.822Z,59.09
2024-03-20T00:14:35.032Z,59.66
2024-03-20T00:17:32.443Z,60.12
2024-03-20T00:20:29.583Z,60.51
2024-03-20T00:23:27.055Z,60.77
2024-03-20T00:26:24.410Z,61.08
2024-03-20T00:29:22.076Z,61.49
2024-03-20T00:32:19.480Z,63.23
2024-03-20T00:35:16.621Z,64.49
2024-03-20T00:38:14.058Z,65.90
2024-03-20T00:41:11.197Z,65.20
2024-03-20T00:44:08.513Z,63.39
2024-03-20T00:47:06.289Z,62.88
2024-03-20T00:50:03.518Z,62.71
2024-03-20T00:53:01.050Z,66.04
2024-03-20T00:55:58.218Z,64.88
2024-03-20T00:58:55.572Z,61.47
2024-03-20T01:01:52.698Z,60.44
2024-03-20T01:04:50.165Z,60.48
2024-03-20T01:07:47.340Z,60.47
2024-03-20T01:10:44.781Z,61.33
2024-03-20T01:13:41.912Z,61.19
2024-03-20T01:16:39.282Z,61.40
2024-03-20T01:19:36.598Z,61.76
2024-03-20T01:22:33.762Z,62.04
2024-03-20T01:25:31.144Z,62.34
2024-03-20T01:28:28.924Z,62.43
2024-03-20T01:31:26.384Z,62.84
2024-03-20T01:34:23.509Z,63.11
2024-03-20T01:37:21.004Z,63.12
2024-03-20T01:40:18.207Z,63.04
2024-03-20T01:43:15.616Z,63.26
2024-03-20T01:46:12.768Z,63.74
2024-03-20T01:49:10.058Z,64.45
2024-03-20T01:52:07.197Z,64.04
2024-03-20T01:55:04.642Z,63.58
2024-03-20T01:58:01.768Z,64.37
2024-03-20T02:00:59.088Z,63.96
2024-03-20T02:03:58.733Z,63.91
2024-03-20T02:06:56.110Z,64.19
2024-03-20T02:09:53.569Z,64.25
2024-03-20T02:12:51.024Z,64.04
2024-03-20T02:15:48.140Z,64.57
2024-03-20T02:18:45.425Z,69.17
2024-03-20T02:21:42.793Z,67.26
2024-03-20T02:24:39.948Z,68.33
2024-03-20T02:27:37.518Z,69.03
2024-03-20T02:30:35.405Z,69.76
2024-03-20T02:33:32.787Z,69.31
2024-03-20T02:36:29.931Z,67.06
2024-03-20T02:39:27.403Z,63.83
2024-03-20T02:42:24.946Z,64.31
2024-03-20T02:45:22.388Z,62.03
2024-03-20T02:48:19.510Z,62.22
2024-03-20T02:51:16.842Z,64.60
2024-03-20T02:54:13.974Z,62.17
2024-03-20T02:57:11.398Z,58.55
2024-03-20T03:00:08.775Z,54.62
2024-03-20T03:03:06.223Z,54.19
2024-03-20T03:06:04.663Z,54.47
2024-03-20T03:09:02.017Z,55.04
2024-03-20T03:11:59.152Z,55.85
2024-03-20T03:15:02.440Z,56.58
2024-03-20T03:18:04.815Z,57.31
2024-03-20T03:21:01.967Z,58.18
2024-03-20T03:23:59.298Z,58.84
2024-03-20T03:26:56.768Z,59.61
2024-03-20T03:29:53.890Z,60.35
2024-03-20T03:32:52.284Z,60.82
2024-03-20T03:35:49.385Z,61.46
2024-03-20T03:38:46.791Z,62.50
2024-03-20T03:41:43.934Z,62.92
2024-03-20T03:44:41.303Z,63.40
2024-03-20T03:47:38.755Z,63.71
2024-03-20T03:50:36.127Z,64.19
2024-03-20T03:53:33.236Z,64.67
2024-03-20T03:56:30.628Z,64.77
2024-03-20T03:59:27.729Z,64.96
2024-03-20T04:02:25.560Z,64.94
2024-03-20T04:05:22.989Z,65.21
2024-03-20T04:08:20.111Z,65.56
2024-03-20T04:11:21.992Z,65.83
2024-03-20T04:14:19.103Z,66.10
2024-03-20T04:17:16.558Z,66.34
2024-03-20T04:20:13.696Z,66.56
2024-03-20T04:23:12.979Z,66.66
2024-03-20T04:26:11.899Z,66.88
2024-03-20T04:29:09.552Z,67.10
2024-03-20T04:32:07.003Z,67.38
2024-03-20T04:35:04.122Z,67.57
2024-03-20T04:38:01.642Z,67.71
2024-03-20T04:40:58.761Z,67.83
2024-03-20T04:43:56.236Z,68.00
2024-03-20T04:46:53.374Z,68.20
2024-03-20T04:49:50.857Z,68.41
2024-03-20T04:52:48.006Z,68.62
2024-03-20T04:55:45.381Z,68.79
2024-03-20T04:58:42.522Z,68.83
2024-03-20T05:01:41.626Z,68.94
2024-03-20T05:04:39.154Z,68.87
2024-03-20T05:07:39.110Z,69.05
2024-03-20T05:10:37.858Z,69.15
2024-03-20T05:13:35.216Z,69.06
2024-03-20T05:16:32.623Z,69.16
2024-03-20T05:19:30.069Z,69.25
2024-03-20T05:22:27.525Z,69.27
2024-03-20T05:25:24.991Z,69.33
2024-03-20T05:28:22.465Z,69.45
2024-03-20T05:31:19.920Z,69.59
2024-03-20T05:34:17.060Z,69.78
2024-03-20T05:37:14.506Z,69.75
2024-03-20T05:40:11.634Z,69.87
2024-03-20T05:43:09.131Z,70.04
2024-03-20T05:46:06.250Z,70.18
2024-03-20T05:49:03.556Z,70.22
2024-03-20T05:52:00.728Z,70.26
2024-03-20T05:54:58.642Z,70.40
2024-03-20T05:57:55.801Z,70.55
2024-03-20T06:00:53.489Z,70.68
2024-03-20T06:03:50.652Z,70.69
2024-03-20T06:06:48.115Z,70.63
2024-03-20T06:09:45.319Z,70.54
2024-03-20T06:12:43.679Z,70.28
2024-03-20T06:15:40.818Z,69.82
2024-03-20T06:18:38.240Z,69.22
2024-03-20T06:21:35.394Z,68.67
2024-03-20T06:24:32.869Z,67.85
2024-03-20T06:27:30.075Z,66.98
2024-03-20T06:30:27.596Z,66.11
2024-03-20T06:33:24.799Z,65.22
2024-03-20T06:36:22.218Z,64.30
2024-03-20T06:39:19.398Z,62.61
2024-03-20T06:42:21.813Z,60.73
2024-03-20T06:45:19.016Z,59.24
2024-03-20T06:48:17.161Z,58.05
2024-03-20T06:51:16.573Z,56.83
2024-03-20T06:54:17.828Z,53.90
2024-03-20T06:57:14.956Z,49.20
2024-03-20T07:00:18.391Z,44.78
2024-03-20T07:03:16.022Z,41.09
2024-03-20T07:06:13.383Z,38.47
2024-03-20T07:09:10.484Z,36.16
2024-03-20T07:12:07.883Z,35.87
2024-03-20T07:15:05.174Z,35.33
2024-03-20T07:18:02.489Z,34.50
2024-03-20T07:20:59.637Z,33.68
2024-03-20T07:23:56.937Z,34.12
2024-03-20T07:26:54.060Z,34.76
2024-03-20T07:29:51.437Z,34.55
2024-03-20T07:32:48.989Z,34.16
2024-03-20T07:35:47.846Z,34.21
2024-03-20T07:38:44.997Z,33.56
2024-03-20T07:41:42.994Z,32.36
2024-03-20T07:44:40.115Z,31.52
2024-03-20T07:47:37.413Z,30.62
2024-03-20T07:50:34.568Z,30.17
2024-03-20T07:53:31.920Z,29.92
2024-03-20T07:56:29.154Z,29.83
2024-03-20T07:59:26.695Z,29.84
2024-03-20T08:02:23.974Z,30.48
2024-03-20T08:05:21.372Z,30.02
2024-03-20T08:08:18.561Z,27.92
2024-03-20T08:11:15.934Z,25.93
2024-03-20T08:14:14.574Z,24.51
2024-03-20T08:17:11.922Z,22.80
2024-03-20T08:20:13.799Z,21.63
2024-03-20T08:23:11.878Z,20.55
2024-03-20T08:26:09.687Z,20.01
2024-03-20T08:29:07.228Z,19.50
2024-03-20T08:32:06.295Z,18.63
2024-03-20T08:35:04.486Z,18.25
2024-03-20T08:38:02.199Z,17.79
2024-03-20T08:40:59.553Z,18.26
2024-03-20T08:43:57.069Z,17.13
2024-03-20T08:46:54.228Z,16.85
2024-03-20T08:49:51.613Z,16.83
2024-03-20T08:52:48.802Z,16.78
2024-03-20T08:55:47.101Z,16.30
2024-03-20T08:58:44.255Z,15.85
2024-03-20T09:01:41.598Z,15.82
2024-03-20T09:04:38.765Z,15.75
2024-03-20T09:07:36.113Z,15.85
2024-03-20T09:10:33.237Z,15.32
2024-03-20T09:13:32.505Z,15.23
2024-03-20T09:16:30.134Z,15.28
2024-03-20T09:19:27.577Z,15.16
2024-03-20T09:22:24.833Z,15.28
2024-03-20T09:25:23.326Z,15.33
2024-03-20T09:28:20.491Z,15.34
2024-03-20T09:31:18.049Z,15.15
2024-03-20T09:34:15.188Z,15.02
2024-03-20T09:37:13.618Z,15.59
2024-03-20T09:40:11.728Z,15.37
2024-03-20T09:43:09.447Z,15.20
2024-03-20T09:46:06.599Z,14.90
2024-03-20T09:49:04.143Z,14.77
2024-03-20T09:52:01.650Z,14.59
2024-03-20T09:54:58.875Z,14.92
2024-03-20T09:57:59.153Z,15.10
2024-03-20T10:00:57.306Z,14.98
2024-03-20T10:03:55.979Z,15.00
2024-03-20T10:06:53.137Z,14.91
2024-03-20T10:09:50.660Z,14.90
2024-03-20T10:12:47.783Z,14.97
2024-03-20T10:15:45.377Z,14.85
2024-03-20T10:18:43.391Z,14.91
2024-03-20T10:21:41.098Z,14.75
2024-03-20T10:24:38.313Z,14.79
2024-03-20T10:27:35.940Z,14.57
2024-03-20T10:30:33.112Z,14.27
2024-03-20T10:33:30.728Z,14.12
2024-03-20T10:36:27.913Z,13.88
2024-03-20T10:39:26.031Z,13.86
2024-03-20T10:42:23.310Z,13.95
2024-03-20T10:45:20.996Z,13.67
2024-03-20T10:48:18.156Z,13.60
2024-03-20T10:51:16.025Z,13.34
2024-03-20T10:54:13.278Z,13.38
2024-03-20T10:57:12.069Z,13.60
2024-03-20T11:00:10.368Z,13.67
2024-03-20T11:03:08.110Z,13.23
2024-03-20T11:06:05.274Z,13.14
2024-03-20T11:09:02.757Z,13.08
2024-03-20T11:12:00.354Z,13.35
2024-03-20T11:14:57.518Z,13.28
2024-03-20T11:17:54.649Z,13.49
2024-03-20T11:20:52.294Z,13.47
2024-03-20T11:23:49.449Z,13.36
2024-03-20T11:26:46.904Z,13.26
2024-03-20T11:29:44.077Z,13.23
2024-03-20T11:32:41.684Z,13.30
2024-03-20T11:35:38.837Z,13.26
2024-03-20T11:38:39.863Z,13.29
2024-03-20T11:41:39.381Z,13.40
2024-03-20T11:44:37.332Z,13.68
2024-03-20T11:47:34.619Z,13.78
2024-03-20T11:50:32.912Z,13.74
2024-03-20T11:53:30.136Z,13.75
2024-03-20T11:56:27.810Z,13.48
2024-03-20T11:59:25.328Z,13.53
2024-03-20T12:02:23.453Z,13.39
2024-03-20T12:05:25.790Z,13.50
2024-03-20T12:08:23.593Z,13.60
2024-03-20T12:11:20.770Z,13.56
2024-03-20T12:14:18.347Z,13.32
2024-03-20T12:17:15.514Z,13.53
2024-03-20T12:20:13.087Z,13.51
2024-03-20T12:23:10.927Z,13.51
2024-03-20T12:26:08.561Z,13.67
2024-03-20T12:29:05.718Z,13.59
2024-03-20T12:32:03.273Z,13.60
2024-03-20T12:35:01.366Z,13.56
2024-03-20T12:37:58.918Z,13.70
2024-03-20T12:40:56.056Z,13.87
2024-03-20T12:43:53.245Z,14.05
2024-03-20T12:46:50.400Z,14.27
2024-03-20T12:49:50.714Z,14.65
2024-03-20T12:52:47.826Z,14.98
2024-03-20T12:55:45.536Z,15.43
2024-03-20T12:58:42.718Z,15.79
2024-03-20T13:01:40.193Z,16.18
2024-03-20T13:04:37.335Z,16.52
2024-03-20T13:07:34.991Z,16.90
2024-03-20T13:10:32.148Z,17.21
2024-03-20T13:13:29.807Z,17.66
2024-03-20T13:16:26.960Z,17.90
2024-03-20T13:19:28.145Z,18.23
2024-03-20T13:22:26.053Z,18.48
2024-03-20T13:25:24.215Z,18.13
2024-03-20T13:28:21.409Z,18.69
2024-03-20T13:31:19.451Z,18.92
2024-03-20T13:34:16.598Z,18.79
2024-03-20T13:37:17.558Z,19.04
2024-03-20T13:40:37.465Z,19.09
2024-03-20T13:44:02.300Z,19.37
2024-03-20T13:46:59.528Z,19.52
2024-03-20T13:49:57.159Z,19.73
2024-03-20T13:52:54.310Z,19.81
2024-03-20T13:55:53.888Z,19.91
2024-03-20T13:58:52.468Z,20.16
2024-03-20T14:01:50.184Z,20.30
2024-03-20T14:04:47.329Z,20.15
2024-03-20T14:07:44.880Z,20.26
2024-03-20T14:10:42.640Z,20.33
2024-03-20T14:13:39.788Z,20.56
2024-03-20T14:16:37.797Z,20.76
2024-03-20T14:19:34.932Z,20.97
2024-03-20T14:22:32.721Z,21.24
2024-03-20T14:25:30.796Z,21.46
2024-03-20T14:28:29.294Z,21.60
2024-03-20T14:31:26.720Z,21.74
2024-03-20T14:34:24.794Z,22.00
2024-03-20T14:37:23.193Z,21.95
2024-03-20T14:40:24.822Z,22.07
2024-03-20T14:43:21.931Z,22.40
2024-03-20T14:46:21.169Z,22.49
2024-03-20T14:49:19.012Z,22.55
2024-03-20T14:52:17.384Z,22.84
2024-03-20T14:55:14.944Z,23.07
2024-03-20T14:58:13.265Z,23.36
2024-03-20T15:01:10.833Z,23.77
2024-03-20T15:04:08.468Z,23.73
2024-03-20T15:07:06.162Z,23.74
2024-03-20T15:10:03.345Z,24.28
2024-03-20T15:13:00.843Z,24.30
2024-03-20T15:15:58.018Z,24.60
2024-03-20T15:18:56.881Z,24.54
2024-03-20T15:21:53.688Z,24.66
2024-03-20T15:24:50.918Z,24.83
2024-03-20T15:27:49.435Z,25.16
2024-03-20T15:30:46.573Z,25.41
2024-03-20T15:33:44.392Z,25.55
2024-03-20T15:36:41.689Z,26.24
2024-03-20T15:39:39.679Z,26.30
2024-03-20T15:42:36.841Z,26.85
2024-03-20T15:45:34.462Z,27.10
2024-03-20T15:48:32.309Z,26.86
2024-03-20T15:51:31.235Z,27.13
2024-03-20T15:54:30.748Z,27.32
2024-03-20T15:57:29.551Z,27.49
2024-03-20T16:00:26.674Z,27.94
2024-03-20T16:03:24.261Z,27.82
2024-03-20T16:06:21.371Z,28.18
2024-03-20T16:09:19.870Z,28.49
2024-03-20T16:12:18.019Z,28.50
2024-03-20T16:15:19.344Z,28.71
2024-03-20T16:18:18.236Z,28.85
2024-03-20T16:21:16.405Z,28.99
2024-03-20T16:24:13.666Z,29.14
2024-03-20T16:27:11.421Z,29.38
2024-03-20T16:30:09.711Z,29.55
2024-03-20T16:33:09.016Z,30.06
2024-03-20T16:36:06.150Z,30.11
2024-03-20T16:39:03.814Z,30.23
2024-03-20T16:42:01.200Z,30.43
2024-03-20T16:44:58.732Z,30.39
2024-03-20T16:47:56.202Z,30.60
2024-03-20T16:50:54.169Z,30.88
2024-03-20T16:53:51.298Z,31.16
2024-03-20T16:56:52.384Z,31.37
2024-03-20T16:59:51.674Z,31.45
2024-03-20T17:02:49.370Z,31.69
2024-03-20T17:05:47.321Z,31.93
2024-03-20T17:08:44.884Z,32.16
2024-03-20T17:11:42.683Z,32.43
2024-03-20T17:14:42.488Z,32.58
2024-03-20T17:17:39.625Z,32.79
2024-03-20T17:20:37.702Z,32.97
2024-03-20T17:23:35.176Z,33.39
2024-03-20T17:26:32.905Z,33.87
2024-03-20T17:29:30.103Z,34.19
2024-03-20T17:32:27.669Z,34.59
2024-03-20T17:35:24.950Z,34.70
2024-03-20T17:38:22.603Z,35.00
2024-03-20T17:41:19.791Z,35.31
2024-03-20T17:44:17.461Z,35.76
2024-03-20T17:47:15.570Z,36.09
2024-03-20T17:50:12.995Z,36.41
2024-03-20T17:53:10.474Z,36.44
2024-03-20T17:56:09.742Z,36.71
2024-03-20T17:59:09.821Z,37.11
2024-03-20T18:02:07.431Z,37.39
2024-03-20T18:05:06.589Z,37.87
2024-03-20T18:08:04.096Z,38.22
2024-03-20T18:11:01.666Z,38.85
2024-03-20T18:13:59.334Z,39.34
2024-03-20T18:16:56.524Z,39.55
2024-03-20T18:19:54.051Z,40.01
2024-03-20T18:22:52.320Z,40.57
2024-03-20T18:25:49.799Z,40.94
2024-03-20T18:28:47.621Z,41.45
2024-03-20T18:31:47.124Z,41.46
2024-03-20T18:34:45.239Z,41.71
2024-03-20T18:37:42.370Z,42.19
2024-03-20T18:40:39.977Z,42.46
2024-03-20T18:43:37.686Z,42.92
2024-03-20T18:46:35.186Z,43.36
2024-03-20T18:49:32.973Z,43.69
2024-03-20T18:52:30.522Z,43.97
2024-03-20T18:55:28.164Z,44.14
2024-03-20T18:58:26.479Z,44.53
2024-03-20T19:01:25.986Z,45.04
2024-03-20T19:04:23.136Z,45.34
2024-03-20T19:07:20.635Z,45.61
2024-03-20T19:10:17.806Z,45.94
2024-03-20T19:13:15.541Z,46.17
2024-03-20T19:16:13.324Z,46.57
2024-03-20T19:19:11.076Z,46.80
2024-03-20T19:22:09.595Z,47.04
2024-03-20T19:25:07.346Z,47.20
2024-03-20T19:28:04.758Z,47.51
2024-03-20T19:31:03.588Z,47.89
2024-03-20T19:34:01.359Z,48.24
2024-03-20T19:36:58.635Z,48.37
2024-03-20T19:39:56.554Z,48.64
2024-03-20T19:42:57.084Z,48.78
2024-03-20T19:45:55.504Z,49.10
2024-03-20T19:48:53.286Z,49.35
2024-03-20T19:51:51.139Z,49.57
2024-03-20T19:54:49.409Z,49.98
2024-03-20T19:57:48.446Z,50.34
2024-03-20T20:00:46.848Z,50.35
2024-03-20T20:03:46.392Z,50.75
2024-03-20T20:06:43.678Z,50.99
2024-03-20T20:09:42.217Z,51.23
2024-03-20T20:12:40.532Z,51.33
2024-03-20T20:15:41.533Z,51.28
2024-03-20T20:18:40.657Z,51.52
2024-03-20T20:21:38.309Z,50.29
2024-03-20T20:24:35.453Z,51.56
2024-03-20T20:27:33.206Z,52.19
2024-03-20T20:30:30.489Z,52.48
2024-03-20T20:33:28.036Z,52.70
2024-03-20T20:36:25.479Z,52.95
2024-03-20T20:39:24.043Z,53.12
2024-03-20T20:42:21.267Z,53.11
2024-03-20T20:45:18.863Z,53.20
2024-03-20T20:48:16.043Z,53.50
2024-03-20T20:51:13.584Z,53.33
2024-03-20T20:54:10.763Z,53.77
2024-03-20T20:57:08.312Z,53.84
2024-03-20T21:00:08.756Z,53.99
2024-03-20T21:03:23.630Z,54.19
2024-03-20T21:06:39.080Z,54.21
2024-03-20T21:09:53.996Z,54.24
2024-03-20T21:13:09.278Z,54.21
2024-03-20T21:16:24.332Z,54.35
2024-03-20T21:19:39.483Z,54.49
2024-03-20T21:22:37.309Z,54.62
2024-03-20T21:25:35.042Z,54.93
2024-03-20T21:28:32.779Z,55.22
2024-03-20T21:31:31.050Z,55.44
2024-03-20T21:34:28.876Z,55.65
2024-03-20T21:37:26.042Z,55.71
2024-03-20T21:40:31.740Z,55.84
2024-03-20T21:43:28.909Z,56.06
2024-03-20T21:46:26.649Z,56.19
2024-03-20T21:49:24.544Z,56.32
2024-03-20T21:52:22.714Z,56.44
2024-03-20T21:55:20.257Z,56.57
2024-03-20T21:58:17.367Z,56.67
2024-03-20T22:01:16.224Z,56.90
2024-03-20T22:04:13.707Z,57.10
2024-03-20T22:07:11.925Z,57.15
2024-03-20T22:10:23.613Z,57.29
2024-03-20T22:13:22.947Z,57.33
2024-03-20T22:16:20.077Z,57.49
2024-03-20T22:19:17.668Z,57.64
2024-03-20T22:22:14.811Z,57.81
2024-03-20T22:25:12.370Z,58.14
2024-03-20T22:28:09.480Z,58.06
2024-03-20T22:31:06.987Z,58.03
2024-03-20T22:34:04.730Z,58.48
2024-03-20T22:37:02.464Z,58.61
2024-03-20T22:39:59.755Z,58.77
2024-03-20T22:42:57.444Z,58.99
2024-03-20T22:45:54.625Z,59.08
2024-03-20T22:48:52.126Z,59.20
2024-03-20T22:51:49.321Z,59.43
2024-03-20T22:54:46.619Z,59.56
2024-03-20T22:57:43.755Z,59.72
2024-03-20T23:00:48.774Z,59.78
2024-03-20T23:03:46.565Z,59.65
2024-03-20T23:06:43.668Z,59.68
2024-03-20T23:09:41.168Z,59.88
2024-03-20T23:12:38.297Z,59.96
2024-03-20T23:15:37.150Z,60.14
2024-03-20T23:18:34.284Z,60.12
2024-03-20T23:21:31.896Z,60.49
2024-03-20T23:24:29.510Z,60.64
2024-03-20T23:27:26.754Z,60.83
2024-03-20T23:30:24.377Z,60.99
2024-03-20T23:33:21.511Z,61.19
2024-03-20T23:36:19.511Z,61.34
2024-03-20T23:39:17.091Z,61.41
2024-03-20T23:42:14.515Z,61.60
2024-03-20T23:45:12.127Z,61.60
2024-03-20T23:48:09.256Z,61.70
2024-03-20T23:51:07.112Z,61.98
2024-03-20T23:54:04.749Z,62.17
2024-03-20T23:57:02.532Z,62.31
2024-03-20T23:59:59.666Z,62.43
